sensor_id;sensor_type;location;lat;lon;timestamp;pressure;altitude;pressure_sealevel;temperature;humidity
163;BME280;3946;48.958;8.284;2024-01-27T00:02:17;102424.72;;;0.65;100.00
163;BME280;3946;48.958;8.284;2024-01-27T00:05:03;102417.84;;;0.58;100.00
163;BME280;3946;48.958;8.284;2024-01-27T00:07:49;102429.66;;;0.49;100.00
163;BME280;3946;48.958;8.284;2024-01-27T00:10:34;102426.31;;;0.54;100.00
163;BME280;3946;48.958;8.284;2024-01-27T00:13:19;102429.72;;;0.55;100.00
163;BME280;3946;48.958;8.284;2024-01-27T00:16:07;102418.75;;;0.62;100.00
163;BME280;3946;48.958;8.284;2024-01-27T00:18:52;102433.22;;;0.66;100.00
163;BME280;3946;48.958;8.284;2024-01-27T00:21:37;102439.00;;;0.51;100.00
163;BME280;3946;48.958;8.284;2024-01-27T00:24:23;102442.31;;;0.43;100.00
163;BME280;3946;48.958;8.284;2024-01-27T00:27:08;102437.97;;;0.32;100.00
163;BME280;3946;48.958;8.284;2024-01-27T00:29:53;102445.78;;;0.48;100.00
163;BME280;3946;48.958;8.284;2024-01-27T00:32:40;102445.22;;;0.75;100.00
163;BME280;3946;48.958;8.284;2024-01-27T00:35:25;102446.00;;;0.67;100.00
163;BME280;3946;48.958;8.284;2024-01-27T00:38:10;102444.97;;;0.52;100.00
163;BME280;3946;48.958;8.284;2024-01-27T00:40:56;102449.09;;;0.41;100.00
163;BME280;3946;48.958;8.284;2024-01-27T00:43:41;102449.88;;;0.37;100.00
163;BME280;3946;48.958;8.284;2024-01-27T00:46:27;102446.44;;;0.33;100.00
163;BME280;3946;48.958;8.284;2024-01-27T00:49:13;102452.41;;;0.35;100.00
163;BME280;3946;48.958;8.284;2024-01-27T00:51:58;102461.69;;;0.28;100.00
163;BME280;3946;48.958;8.284;2024-01-27T00:54:44;102452.22;;;0.20;100.00
163;BME280;3946;48.958;8.284;2024-01-27T00:57:29;102450.72;;;0.32;100.00
163;BME280;3946;48.958;8.284;2024-01-27T01:00:15;102458.41;;;0.37;100.00
163;BME280;3946;48.958;8.284;2024-01-27T01:03:00;102464.22;;;0.27;100.00
163;BME280;3946;48.958;8.284;2024-01-27T01:05:47;102450.66;;;0.28;100.00
163;BME280;3946;48.958;8.284;2024-01-27T01:08:32;102465.06;;;0.26;100.00
163;BME280;3946;48.958;8.284;2024-01-27T01:11:17;102468.34;;;0.17;100.00
163;BME280;3946;48.958;8.284;2024-01-27T01:14:03;102477.03;;;0.33;100.00
163;BME280;3946;48.958;8.284;2024-01-27T01:16:48;102476.06;;;0.22;100.00
163;BME280;3946;48.958;8.284;2024-01-27T01:19:34;102477.56;;;0.08;100.00
163;BME280;3946;48.958;8.284;2024-01-27T01:22:20;102475.88;;;0.08;100.00
163;BME280;3946;48.958;8.284;2024-01-27T01:25:06;102470.19;;;0.27;100.00
163;BME280;3946;48.958;8.284;2024-01-27T01:27:52;102477.72;;;0.20;100.00
163;BME280;3946;48.958;8.284;2024-01-27T01:30:37;102486.19;;;0.16;100.00
163;BME280;3946;48.958;8.284;2024-01-27T01:33:23;102492.13;;;0.16;100.00
163;BME280;3946;48.958;8.284;2024-01-27T01:36:08;102498.84;;;0.11;100.00
163;BME280;3946;48.958;8.284;2024-01-27T01:38:55;102509.94;;;0.15;100.00
163;BME280;3946;48.958;8.284;2024-01-27T01:41:40;102511.38;;;-0.04;100.00
163;BME280;3946;48.958;8.284;2024-01-27T01:44:30;102514.69;;;-0.10;100.00
163;BME280;3946;48.958;8.284;2024-01-27T01:47:15;102508.66;;;-0.15;100.00
163;BME280;3946;48.958;8.284;2024-01-27T01:50:01;102514.91;;;0.06;100.00
163;BME280;3946;48.958;8.284;2024-01-27T01:52:47;102518.44;;;0.14;100.00
163;BME280;3946;48.958;8.284;2024-01-27T01:55:35;102524.25;;;0.07;100.00
163;BME280;3946;48.958;8.284;2024-01-27T01:58:20;102526.78;;;0.05;100.00
163;BME280;3946;48.958;8.284;2024-01-27T02:01:05;102529.88;;;-0.14;100.00
163;BME280;3946;48.958;8.284;2024-01-27T02:03:52;102538.25;;;-0.23;100.00
163;BME280;3946;48.958;8.284;2024-01-27T02:06:37;102545.72;;;-0.32;100.00
163;BME280;3946;48.958;8.284;2024-01-27T02:09:22;102540.56;;;-0.38;100.00
163;BME280;3946;48.958;8.284;2024-01-27T02:12:09;102551.94;;;-0.15;100.00
163;BME280;3946;48.958;8.284;2024-01-27T02:14:54;102555.09;;;-0.32;100.00
163;BME280;3946;48.958;8.284;2024-01-27T02:17:40;102565.19;;;-0.37;100.00
163;BME280;3946;48.958;8.284;2024-01-27T02:20:26;102570.34;;;-0.34;100.00
163;BME280;3946;48.958;8.284;2024-01-27T02:23:11;102558.63;;;-0.23;100.00
163;BME280;3946;48.958;8.284;2024-01-27T02:25:58;102556.69;;;-0.38;100.00
163;BME280;3946;48.958;8.284;2024-01-27T02:28:43;102554.09;;;-0.41;100.00
163;BME280;3946;48.958;8.284;2024-01-27T02:31:28;102549.63;;;-0.54;100.00
163;BME280;3946;48.958;8.284;2024-01-27T02:34:13;102539.28;;;-0.61;100.00
163;BME280;3946;48.958;8.284;2024-01-27T02:36:59;102547.00;;;-0.58;100.00
163;BME280;3946;48.958;8.284;2024-01-27T02:39:44;102553.97;;;-0.47;100.00
163;BME280;3946;48.958;8.284;2024-01-27T02:42:30;102558.09;;;-0.55;100.00
163;BME280;3946;48.958;8.284;2024-01-27T02:45:16;102562.13;;;-0.67;100.00
163;BME280;3946;48.958;8.284;2024-01-27T02:48:01;102556.00;;;-0.76;100.00
163;BME280;3946;48.958;8.284;2024-01-27T02:50:47;102554.22;;;-0.80;100.00
163;BME280;3946;48.958;8.284;2024-01-27T02:53:32;102560.28;;;-0.75;100.00
163;BME280;3946;48.958;8.284;2024-01-27T02:56:17;102573.81;;;-0.27;100.00
163;BME280;3946;48.958;8.284;2024-01-27T02:59:04;102564.13;;;-0.48;100.00
163;BME280;3946;48.958;8.284;2024-01-27T03:01:49;102575.94;;;-0.53;100.00
163;BME280;3946;48.958;8.284;2024-01-27T03:04:35;102578.44;;;-0.56;100.00
163;BME280;3946;48.958;8.284;2024-01-27T03:07:20;102580.81;;;-0.65;100.00
163;BME280;3946;48.958;8.284;2024-01-27T03:10:06;102578.03;;;-0.29;100.00
163;BME280;3946;48.958;8.284;2024-01-27T03:12:51;102561.50;;;-0.54;100.00
163;BME280;3946;48.958;8.284;2024-01-27T03:15:38;102564.88;;;-0.04;100.00
163;BME280;3946;48.958;8.284;2024-01-27T03:18:23;102557.38;;;-0.46;100.00
163;BME280;3946;48.958;8.284;2024-01-27T03:21:09;102557.25;;;-0.54;100.00
163;BME280;3946;48.958;8.284;2024-01-27T03:23:54;102562.16;;;-0.63;100.00
163;BME280;3946;48.958;8.284;2024-01-27T03:26:39;102558.38;;;-0.86;100.00
163;BME280;3946;48.958;8.284;2024-01-27T03:29:25;102559.72;;;-1.03;100.00
163;BME280;3946;48.958;8.284;2024-01-27T03:32:11;102553.69;;;-1.09;100.00
163;BME280;3946;48.958;8.284;2024-01-27T03:34:57;102558.97;;;-0.99;100.00
163;BME280;3946;48.958;8.284;2024-01-27T03:37:42;102554.78;;;-0.96;100.00
163;BME280;3946;48.958;8.284;2024-01-27T03:40:28;102556.31;;;-1.04;100.00
163;BME280;3946;48.958;8.284;2024-01-27T03:43:14;102560.00;;;-0.90;100.00
163;BME280;3946;48.958;8.284;2024-01-27T03:46:00;102559.81;;;-0.99;100.00
163;BME280;3946;48.958;8.284;2024-01-27T03:48:47;102561.53;;;-0.96;100.00
163;BME280;3946;48.958;8.284;2024-01-27T03:51:32;102565.59;;;-1.06;100.00
163;BME280;3946;48.958;8.284;2024-01-27T03:54:17;102571.59;;;-1.04;100.00
163;BME280;3946;48.958;8.284;2024-01-27T03:57:03;102575.44;;;-0.79;100.00
163;BME280;3946;48.958;8.284;2024-01-27T03:59:48;102590.47;;;-0.91;100.00
163;BME280;3946;48.958;8.284;2024-01-27T04:02:33;102595.53;;;-0.93;100.00
163;BME280;3946;48.958;8.284;2024-01-27T04:05:20;102592.09;;;-0.95;100.00
163;BME280;3946;48.958;8.284;2024-01-27T04:08:06;102598.94;;;-0.92;100.00
163;BME280;3946;48.958;8.284;2024-01-27T04:10:51;102599.69;;;-0.98;100.00
163;BME280;3946;48.958;8.284;2024-01-27T04:13:36;102597.13;;;-0.99;100.00
163;BME280;3946;48.958;8.284;2024-01-27T04:16:22;102598.78;;;-1.01;100.00
163;BME280;3946;48.958;8.284;2024-01-27T04:19:07;102598.91;;;-0.94;100.00
163;BME280;3946;48.958;8.284;2024-01-27T04:21:54;102613.47;;;-0.87;100.00
163;BME280;3946;48.958;8.284;2024-01-27T04:24:39;102611.44;;;-1.04;100.00
163;BME280;3946;48.958;8.284;2024-01-27T04:27:27;102602.75;;;-1.13;100.00
163;BME280;3946;48.958;8.284;2024-01-27T04:30:12;102614.47;;;-1.21;100.00
163;BME280;3946;48.958;8.284;2024-01-27T04:32:57;102612.72;;;-1.23;100.00
163;BME280;3946;48.958;8.284;2024-01-27T04:35:43;102612.53;;;-1.32;100.00
163;BME280;3946;48.958;8.284;2024-01-27T04:38:29;102622.69;;;-1.34;100.00
163;BME280;3946;48.958;8.284;2024-01-27T04:41:14;102624.44;;;-1.31;100.00
163;BME280;3946;48.958;8.284;2024-01-27T04:44:00;102626.03;;;-1.35;100.00
163;BME280;3946;48.958;8.284;2024-01-27T04:46:45;102616.69;;;-1.36;100.00
163;BME280;3946;48.958;8.284;2024-01-27T04:49:30;102625.91;;;-1.41;100.00
163;BME280;3946;48.958;8.284;2024-01-27T04:52:16;102619.88;;;-1.46;100.00
163;BME280;3946;48.958;8.284;2024-01-27T04:55:03;102620.66;;;-1.49;100.00
163;BME280;3946;48.958;8.284;2024-01-27T04:57:48;102618.88;;;-1.53;100.00
163;BME280;3946;48.958;8.284;2024-01-27T05:00:34;102622.31;;;-1.51;100.00
163;BME280;3946;48.958;8.284;2024-01-27T05:03:19;102619.56;;;-1.58;100.00
163;BME280;3946;48.958;8.284;2024-01-27T05:06:07;102621.09;;;-1.66;100.00
163;BME280;3946;48.958;8.284;2024-01-27T05:08:53;102624.50;;;-1.66;100.00
163;BME280;3946;48.958;8.284;2024-01-27T05:11:39;102610.13;;;-1.65;100.00
163;BME280;3946;48.958;8.284;2024-01-27T05:14:26;102616.22;;;-1.57;100.00
163;BME280;3946;48.958;8.284;2024-01-27T05:17:12;102615.28;;;-1.61;100.00
163;BME280;3946;48.958;8.284;2024-01-27T05:19:57;102607.66;;;-1.62;100.00
163;BME280;3946;48.958;8.284;2024-01-27T05:22:43;102607.53;;;-1.67;100.00
163;BME280;3946;48.958;8.284;2024-01-27T05:25:28;102607.47;;;-1.70;100.00
163;BME280;3946;48.958;8.284;2024-01-27T05:28:14;102593.91;;;-1.70;100.00
163;BME280;3946;48.958;8.284;2024-01-27T05:31:00;102612.00;;;-1.57;100.00
163;BME280;3946;48.958;8.284;2024-01-27T05:33:45;102617.09;;;-1.55;100.00
163;BME280;3946;48.958;8.284;2024-01-27T05:36:30;102617.00;;;-1.60;100.00
163;BME280;3946;48.958;8.284;2024-01-27T05:39:15;102607.91;;;-1.50;100.00
163;BME280;3946;48.958;8.284;2024-01-27T05:42:01;102614.75;;;-1.48;100.00
163;BME280;3946;48.958;8.284;2024-01-27T05:44:47;102617.22;;;-1.51;100.00
163;BME280;3946;48.958;8.284;2024-01-27T05:47:33;102613.72;;;-1.56;100.00
163;BME280;3946;48.958;8.284;2024-01-27T05:50:18;102618.59;;;-1.65;100.00
163;BME280;3946;48.958;8.284;2024-01-27T05:53:03;102617.47;;;-1.76;100.00
163;BME280;3946;48.958;8.284;2024-01-27T05:55:49;102621.59;;;-1.81;100.00
163;BME280;3946;48.958;8.284;2024-01-27T05:58:34;102615.81;;;-1.74;100.00
163;BME280;3946;48.958;8.284;2024-01-27T06:01:21;102624.25;;;-1.75;100.00
163;BME280;3946;48.958;8.284;2024-01-27T06:04:06;102633.50;;;-1.80;100.00
163;BME280;3946;48.958;8.284;2024-01-27T06:06:52;102625.81;;;-1.82;100.00
163;BME280;3946;48.958;8.284;2024-01-27T06:09:37;102624.84;;;-1.87;100.00
163;BME280;3946;48.958;8.284;2024-01-27T06:12:22;102632.72;;;-1.76;100.00
163;BME280;3946;48.958;8.284;2024-01-27T06:15:09;102638.53;;;-1.82;100.00
163;BME280;3946;48.958;8.284;2024-01-27T06:17:56;102643.44;;;-1.88;100.00
163;BME280;3946;48.958;8.284;2024-01-27T06:20:41;102639.78;;;-1.99;100.00
163;BME280;3946;48.958;8.284;2024-01-27T06:23:26;102641.47;;;-1.99;100.00
163;BME280;3946;48.958;8.284;2024-01-27T06:26:13;102637.22;;;-2.00;100.00
163;BME280;3946;48.958;8.284;2024-01-27T06:28:58;102638.94;;;-1.99;100.00
163;BME280;3946;48.958;8.284;2024-01-27T06:31:44;102636.28;;;-2.04;100.00
163;BME280;3946;48.958;8.284;2024-01-27T06:34:32;102645.38;;;-1.79;100.00
163;BME280;3946;48.958;8.284;2024-01-27T06:37:17;102645.03;;;-1.91;100.00
163;BME280;3946;48.958;8.284;2024-01-27T06:40:03;102650.00;;;-1.97;100.00
163;BME280;3946;48.958;8.284;2024-01-27T06:42:48;102647.38;;;-2.00;100.00
163;BME280;3946;48.958;8.284;2024-01-27T06:45:34;102643.44;;;-1.88;100.00
163;BME280;3946;48.958;8.284;2024-01-27T06:48:19;102636.41;;;-1.99;100.00
163;BME280;3946;48.958;8.284;2024-01-27T06:51:06;102638.81;;;-2.04;100.00
163;BME280;3946;48.958;8.284;2024-01-27T06:53:51;102638.69;;;-2.08;100.00
163;BME280;3946;48.958;8.284;2024-01-27T06:56:37;102637.88;;;-2.07;100.00
163;BME280;3946;48.958;8.284;2024-01-27T06:59:22;102626.84;;;-2.08;100.00
163;BME280;3946;48.958;8.284;2024-01-27T07:02:07;102627.63;;;-2.12;100.00
163;BME280;3946;48.958;8.284;2024-01-27T07:04:58;102628.34;;;-2.16;100.00
163;BME280;3946;48.958;8.284;2024-01-27T07:07:44;102633.56;;;-2.10;100.00
163;BME280;3946;48.958;8.284;2024-01-27T07:10:30;102631.84;;;-2.13;100.00
163;BME280;3946;48.958;8.284;2024-01-27T07:13:15;102623.75;;;-1.98;100.00
163;BME280;3946;48.958;8.284;2024-01-27T07:16:00;102627.88;;;-2.01;100.00
163;BME280;3946;48.958;8.284;2024-01-27T07:18:46;102638.50;;;-1.83;100.00
163;BME280;3946;48.958;8.284;2024-01-27T07:21:31;102642.41;;;-1.96;100.00
163;BME280;3946;48.958;8.284;2024-01-27T07:24:18;102638.81;;;-2.04;100.00
163;BME280;3946;48.958;8.284;2024-01-27T07:27:03;102634.50;;;-2.06;100.00
163;BME280;3946;48.958;8.284;2024-01-27T07:29:49;102639.59;;;-2.06;100.00
163;BME280;3946;48.958;8.284;2024-01-27T07:32:34;102637.25;;;-1.99;100.00
163;BME280;3946;48.958;8.284;2024-01-27T07:35:19;102629.03;;;-1.89;100.00
163;BME280;3946;48.958;8.284;2024-01-27T07:38:05;102644.91;;;-1.63;100.00
163;BME280;3946;48.958;8.284;2024-01-27T07:40:51;102641.28;;;-1.72;100.00
163;BME280;3946;48.958;8.284;2024-01-27T07:43:37;102643.94;;;-1.68;100.00
163;BME280;3946;48.958;8.284;2024-01-27T07:46:22;102642.88;;;-1.40;100.00
163;BME280;3946;48.958;8.284;2024-01-27T07:49:08;102641.38;;;-1.32;100.00
163;BME280;3946;48.958;8.284;2024-01-27T07:51:53;102650.50;;;-1.01;100.00
163;BME280;3946;48.958;8.284;2024-01-27T07:54:39;102639.69;;;-1.31;100.00
163;BME280;3946;48.958;8.284;2024-01-27T07:57:25;102623.59;;;-1.29;100.00
163;BME280;3946;48.958;8.284;2024-01-27T08:00:11;102623.81;;;-1.20;100.00
163;BME280;3946;48.958;8.284;2024-01-27T08:02:57;102618.88;;;-1.14;100.00
163;BME280;3946;48.958;8.284;2024-01-27T08:05:42;102608.72;;;-1.12;100.00
163;BME280;3946;48.958;8.284;2024-01-27T08:08:27;102619.84;;;-1.07;100.00
163;BME280;3946;48.958;8.284;2024-01-27T08:11:13;102634.28;;;-1.06;100.00
163;BME280;3946;48.958;8.284;2024-01-27T08:13:59;102635.22;;;-1.02;100.00
163;BME280;3946;48.958;8.284;2024-01-27T08:16:45;102626.06;;;-0.93;100.00
163;BME280;3946;48.958;8.284;2024-01-27T08:19:31;102622.88;;;-0.84;100.00
163;BME280;3946;48.958;8.284;2024-01-27T08:22:16;102636.06;;;-0.60;100.00
163;BME280;3946;48.958;8.284;2024-01-27T08:25:02;102644.22;;;0.19;100.00
163;BME280;3946;48.958;8.284;2024-01-27T08:27:48;102640.25;;;5.20;100.00
163;BME280;3946;48.958;8.284;2024-01-27T08:30:34;102642.03;;;5.15;100.00
163;BME280;3946;48.958;8.284;2024-01-27T08:33:21;102635.41;;;4.36;100.00
163;BME280;3946;48.958;8.284;2024-01-27T08:36:07;102635.28;;;3.22;100.00
163;BME280;3946;48.958;8.284;2024-01-27T08:38:52;102628.75;;;2.23;100.00
163;BME280;3946;48.958;8.284;2024-01-27T08:41:37;102625.84;;;1.79;100.00
163;BME280;3946;48.958;8.284;2024-01-27T08:44:23;102631.78;;;1.76;100.00
163;BME280;3946;48.958;8.284;2024-01-27T08:47:10;102634.94;;;1.54;100.00
163;BME280;3946;48.958;8.284;2024-01-27T08:49:55;102626.28;;;1.39;100.00
163;BME280;3946;48.958;8.284;2024-01-27T08:52:40;102623.53;;;1.21;100.00
163;BME280;3946;48.958;8.284;2024-01-27T08:55:26;102624.47;;;1.28;100.00
163;BME280;3946;48.958;8.284;2024-01-27T08:58:11;102632.97;;;1.28;100.00
163;BME280;3946;48.958;8.284;2024-01-27T09:00:56;102636.44;;;1.33;100.00
163;BME280;3946;48.958;8.284;2024-01-27T09:03:45;102637.59;;;1.61;100.00
163;BME280;3946;48.958;8.284;2024-01-27T09:06:31;102624.88;;;1.67;100.00
163;BME280;3946;48.958;8.284;2024-01-27T09:09:16;102623.97;;;1.65;100.00
163;BME280;3946;48.958;8.284;2024-01-27T09:12:02;102621.41;;;1.61;100.00
163;BME280;3946;48.958;8.284;2024-01-27T09:14:47;102617.13;;;1.60;100.00
163;BME280;3946;48.958;8.284;2024-01-27T09:17:32;102612.03;;;1.63;100.00
163;BME280;3946;48.958;8.284;2024-01-27T09:20:19;102618.06;;;1.68;100.00
163;BME280;3946;48.958;8.284;2024-01-27T09:23:04;102613.97;;;1.87;100.00
163;BME280;3946;48.958;8.284;2024-01-27T09:25:49;102613.22;;;1.98;100.00
163;BME280;3946;48.958;8.284;2024-01-27T09:28:35;102613.44;;;2.24;100.00
163;BME280;3946;48.958;8.284;2024-01-27T09:31:21;102618.56;;;2.32;100.00
163;BME280;3946;48.958;8.284;2024-01-27T09:34:07;102624.56;;;2.32;100.00
163;BME280;3946;48.958;8.284;2024-01-27T09:36:53;102622.03;;;2.37;100.00
163;BME280;3946;48.958;8.284;2024-01-27T09:39:38;102625.47;;;2.39;100.00
163;BME280;3946;48.958;8.284;2024-01-27T09:42:24;102628.09;;;2.51;100.00
163;BME280;3946;48.958;8.284;2024-01-27T09:45:09;102615.41;;;2.69;100.00
163;BME280;3946;48.958;8.284;2024-01-27T09:47:56;102599.31;;;2.96;100.00
163;BME280;3946;48.958;8.284;2024-01-27T09:50:45;102587.41;;;3.10;100.00
163;BME280;3946;48.958;8.284;2024-01-27T09:53:31;102574.66;;;3.21;100.00
163;BME280;3946;48.958;8.284;2024-01-27T09:56:17;102566.97;;;3.30;100.00
163;BME280;3946;48.958;8.284;2024-01-27T09:59:05;102566.16;;;3.54;100.00
163;BME280;3946;48.958;8.284;2024-01-27T10:01:52;102561.03;;;3.65;100.00
163;BME280;3946;48.958;8.284;2024-01-27T10:04:38;102562.75;;;3.66;100.00
163;BME280;3946;48.958;8.284;2024-01-27T10:07:24;102555.06;;;3.63;100.00
163;BME280;3946;48.958;8.284;2024-01-27T10:10:11;102553.38;;;3.69;100.00
163;BME280;3946;48.958;8.284;2024-01-27T10:12:58;102546.53;;;3.90;100.00
163;BME280;3946;48.958;8.284;2024-01-27T10:15:43;102540.53;;;4.01;100.00
163;BME280;3946;48.958;8.284;2024-01-27T10:18:29;102556.75;;;3.96;100.00
163;BME280;3946;48.958;8.284;2024-01-27T10:21:15;102559.31;;;3.97;100.00
163;BME280;3946;48.958;8.284;2024-01-27T10:24:00;102567.00;;;4.14;100.00
163;BME280;3946;48.958;8.284;2024-01-27T10:26:51;102565.28;;;4.14;100.00
163;BME280;3946;48.958;8.284;2024-01-27T10:29:37;102574.63;;;4.40;100.00
163;BME280;3946;48.958;8.284;2024-01-27T10:32:22;102564.31;;;4.55;100.00
163;BME280;3946;48.958;8.284;2024-01-27T10:35:08;102557.50;;;4.54;100.00
163;BME280;3946;48.958;8.284;2024-01-27T10:37:54;102554.88;;;4.71;100.00
163;BME280;3946;48.958;8.284;2024-01-27T10:40:40;102555.69;;;4.76;100.00
163;BME280;3946;48.958;8.284;2024-01-27T10:43:28;102544.63;;;4.57;100.00
163;BME280;3946;48.958;8.284;2024-01-27T10:46:14;102547.97;;;4.85;100.00
163;BME280;3946;48.958;8.284;2024-01-27T10:49:00;102541.13;;;4.82;100.00
163;BME280;3946;48.958;8.284;2024-01-27T10:51:54;102535.91;;;4.99;100.00
163;BME280;3946;48.958;8.284;2024-01-27T10:54:40;102538.50;;;4.93;100.00
163;BME280;3946;48.958;8.284;2024-01-27T10:57:29;102535.94;;;4.95;100.00
163;BME280;3946;48.958;8.284;2024-01-27T11:00:16;102518.72;;;5.06;100.00
163;BME280;3946;48.958;8.284;2024-01-27T11:03:02;102515.25;;;5.14;100.00
163;BME280;3946;48.958;8.284;2024-01-27T11:05:49;102530.59;;;5.23;100.00
163;BME280;3946;48.958;8.284;2024-01-27T11:08:37;102544.31;;;5.22;100.00
163;BME280;3946;48.958;8.284;2024-01-27T11:11:23;102542.47;;;5.44;100.00
163;BME280;3946;48.958;8.284;2024-01-27T11:14:08;102526.06;;;5.60;100.00
163;BME280;3946;48.958;8.284;2024-01-27T11:16:56;102531.97;;;5.70;100.00
163;BME280;3946;48.958;8.284;2024-01-27T11:19:42;102527.63;;;5.80;100.00
163;BME280;3946;48.958;8.284;2024-01-27T11:22:28;102515.50;;;5.94;100.00
163;BME280;3946;48.958;8.284;2024-01-27T11:25:16;102517.97;;;6.03;100.00
163;BME280;3946;48.958;8.284;2024-01-27T11:28:10;102503.34;;;6.08;100.00
163;BME280;3946;48.958;8.284;2024-01-27T11:30:56;102502.34;;;6.23;100.00
163;BME280;3946;48.958;8.284;2024-01-27T11:33:44;102497.00;;;6.40;100.00
163;BME280;3946;48.958;8.284;2024-01-27T11:36:32;102485.97;;;6.28;100.00
163;BME280;3946;48.958;8.284;2024-01-27T11:39:25;102483.38;;;6.30;100.00
163;BME280;3946;48.958;8.284;2024-01-27T11:42:12;102460.88;;;6.47;100.00
163;BME280;3946;48.958;8.284;2024-01-27T11:44:57;102467.63;;;6.54;100.00
163;BME280;3946;48.958;8.284;2024-01-27T11:47:43;102479.41;;;6.74;100.00
163;BME280;3946;48.958;8.284;2024-01-27T11:50:30;102476.66;;;6.86;100.00
163;BME280;3946;48.958;8.284;2024-01-27T11:53:15;102479.00;;;7.01;100.00
163;BME280;3946;48.958;8.284;2024-01-27T11:56:00;102475.44;;;7.11;100.00
163;BME280;3946;48.958;8.284;2024-01-27T11:58:46;102467.41;;;7.29;100.00
163;BME280;3946;48.958;8.284;2024-01-27T12:01:32;102452.94;;;7.21;99.83
163;BME280;3946;48.958;8.284;2024-01-27T12:04:18;102445.97;;;7.26;98.95
163;BME280;3946;48.958;8.284;2024-01-27T12:07:06;102448.38;;;7.36;96.69
163;BME280;3946;48.958;8.284;2024-01-27T12:09:51;102450.06;;;7.39;96.21
163;BME280;3946;48.958;8.284;2024-01-27T12:12:37;102450.66;;;7.53;94.74
163;BME280;3946;48.958;8.284;2024-01-27T12:15:22;102455.91;;;7.47;93.08
163;BME280;3946;48.958;8.284;2024-01-27T12:18:08;102449.53;;;7.68;94.05
163;BME280;3946;48.958;8.284;2024-01-27T12:20:55;102443.34;;;7.78;92.96
163;BME280;3946;48.958;8.284;2024-01-27T12:23:53;102442.00;;;7.57;91.84
163;BME280;3946;48.958;8.284;2024-01-27T12:26:38;102444.28;;;7.74;91.79
163;BME280;3946;48.958;8.284;2024-01-27T12:29:26;102435.75;;;7.70;90.40
163;BME280;3946;48.958;8.284;2024-01-27T12:32:12;102430.31;;;7.84;90.85
163;BME280;3946;48.958;8.284;2024-01-27T12:34:58;102420.75;;;7.91;88.75
163;BME280;3946;48.958;8.284;2024-01-27T12:37:44;102417.16;;;7.96;87.38
163;BME280;3946;48.958;8.284;2024-01-27T12:40:31;102421.13;;;8.14;87.00
163;BME280;3946;48.958;8.284;2024-01-27T12:43:16;102422.19;;;8.04;86.59
163;BME280;3946;48.958;8.284;2024-01-27T12:46:02;102414.50;;;8.01;86.78
163;BME280;3946;48.958;8.284;2024-01-27T12:48:47;102411.56;;;8.19;86.76
163;BME280;3946;48.958;8.284;2024-01-27T12:51:33;102407.69;;;8.41;84.98
163;BME280;3946;48.958;8.284;2024-01-27T12:54:18;102410.28;;;8.41;83.96
163;BME280;3946;48.958;8.284;2024-01-27T12:57:05;102400.25;;;8.25;83.46
163;BME280;3946;48.958;8.284;2024-01-27T12:59:51;102402.63;;;8.35;82.03
163;BME280;3946;48.958;8.284;2024-01-27T13:02:37;102396.84;;;8.23;81.55
163;BME280;3946;48.958;8.284;2024-01-27T13:05:22;102395.72;;;8.37;83.58
163;BME280;3946;48.958;8.284;2024-01-27T13:08:07;102390.34;;;8.45;83.39
163;BME280;3946;48.958;8.284;2024-01-27T13:10:53;102385.78;;;8.58;82.99
163;BME280;3946;48.958;8.284;2024-01-27T13:13:41;102376.56;;;8.46;81.01
163;BME280;3946;48.958;8.284;2024-01-27T13:16:26;102371.25;;;8.54;79.41
163;BME280;3946;48.958;8.284;2024-01-27T13:19:11;102364.44;;;8.50;78.63
163;BME280;3946;48.958;8.284;2024-01-27T13:21:56;102370.44;;;8.50;79.26
163;BME280;3946;48.958;8.284;2024-01-27T13:24:42;102376.22;;;8.61;80.57
163;BME280;3946;48.958;8.284;2024-01-27T13:27:27;102364.88;;;8.68;80.62
163;BME280;3946;48.958;8.284;2024-01-27T13:30:14;102360.59;;;8.67;80.53
163;BME280;3946;48.958;8.284;2024-01-27T13:33:01;102364.88;;;8.68;80.62
163;BME280;3946;48.958;8.284;2024-01-27T13:35:46;102356.16;;;8.72;80.19
163;BME280;3946;48.958;8.284;2024-01-27T13:38:32;102357.91;;;8.72;80.17
163;BME280;3946;48.958;8.284;2024-01-27T13:41:19;102361.41;;;8.69;80.82
163;BME280;3946;48.958;8.284;2024-01-27T13:44:04;102356.41;;;8.62;80.04
163;BME280;3946;48.958;8.284;2024-01-27T13:46:52;102351.34;;;8.57;80.95
163;BME280;3946;48.958;8.284;2024-01-27T13:49:38;102357.22;;;8.64;81.15
163;BME280;3946;48.958;8.284;2024-01-27T13:52:24;102348.56;;;8.65;81.49
163;BME280;3946;48.958;8.284;2024-01-27T13:55:10;102357.00;;;8.73;82.36
163;BME280;3946;48.958;8.284;2024-01-27T13:57:56;102356.69;;;8.87;81.69
163;BME280;3946;48.958;8.284;2024-01-27T14:00:41;102361.19;;;8.77;82.04
163;BME280;3946;48.958;8.284;2024-01-27T14:03:28;102357.94;;;8.70;80.21
163;BME280;3946;48.958;8.284;2024-01-27T14:06:13;102360.47;;;8.72;80.84
163;BME280;3946;48.958;8.284;2024-01-27T14:08:58;102359.59;;;8.73;81.18
163;BME280;3946;48.958;8.284;2024-01-27T14:11:44;102363.94;;;8.71;80.64
163;BME280;3946;48.958;8.284;2024-01-27T14:14:30;102360.66;;;8.64;79.97
163;BME280;3946;48.958;8.284;2024-01-27T14:17:15;102349.44;;;8.65;80.25
163;BME280;3946;48.958;8.284;2024-01-27T14:20:03;102346.91;;;8.62;80.33
163;BME280;3946;48.958;8.284;2024-01-27T14:22:48;102339.16;;;8.62;79.59
163;BME280;3946;48.958;8.284;2024-01-27T14:25:34;102342.03;;;8.50;79.99
163;BME280;3946;48.958;8.284;2024-01-27T14:28:19;102335.81;;;8.59;79.56
163;BME280;3946;48.958;8.284;2024-01-27T14:31:06;102332.41;;;8.57;78.46
163;BME280;3946;48.958;8.284;2024-01-27T14:33:51;102322.06;;;8.58;78.93
163;BME280;3946;48.958;8.284;2024-01-27T14:36:38;102320.16;;;8.65;79.22
163;BME280;3946;48.958;8.284;2024-01-27T14:39:24;102315.88;;;8.64;79.12
163;BME280;3946;48.958;8.284;2024-01-27T14:42:10;102311.59;;;8.63;79.82
163;BME280;3946;48.958;8.284;2024-01-27T14:44:55;102311.81;;;8.54;79.62
163;BME280;3946;48.958;8.284;2024-01-27T14:47:40;102317.78;;;8.57;78.83
163;BME280;3946;48.958;8.284;2024-01-27T14:50:25;102301.78;;;8.41;79.75
163;BME280;3946;48.958;8.284;2024-01-27T14:53:12;102302.53;;;8.45;79.56
163;BME280;3946;48.958;8.284;2024-01-27T14:55:58;102307.91;;;8.37;79.70
163;BME280;3946;48.958;8.284;2024-01-27T14:58:43;102300.94;;;8.41;79.80
163;BME280;3946;48.958;8.284;2024-01-27T15:01:30;102310.50;;;8.36;79.87